createdAt,value
2022-08-13T00:00:56.193Z,54.65
2022-08-13T00:01:57.789Z,54.13
2022-08-13T00:02:56.155Z,54.45
2022-08-13T00:03:58.906Z,53.82
2022-08-13T00:04:57.119Z,54.43
2022-08-13T00:05:56.106Z,54.33
2022-08-13T00:06:56.081Z,54.25
2022-08-13T00:07:56.337Z,54.65
2022-08-13T00:08:56.067Z,54.75
2022-08-13T00:09:56.017Z,54.75
2022-08-13T00:10:59.023Z,54.75
2022-08-13T00:12:00.624Z,54.85
2022-08-13T00:12:56.966Z,54.85
2022-08-13T00:13:55.968Z,54.85
2022-08-13T00:14:55.921Z,55.16
2022-08-13T00:15:56.664Z,54.78
2022-08-13T00:16:57.849Z,54.85
2022-08-13T00:18:03.876Z,54.98
2022-08-13T00:18:56.871Z,54.68
2022-08-13T00:19:55.916Z,55.28
2022-08-13T00:20:57.557Z,55.58
2022-08-13T00:21:58.989Z,54.78
2022-08-13T00:23:01.925Z,54.98
2022-08-13T00:24:00.372Z,54.58
2022-08-13T00:24:55.721Z,55.08
2022-08-13T00:25:55.786Z,56.09
2022-08-13T00:26:55.679Z,54.88
2022-08-13T00:28:01.732Z,55.18
2022-08-13T00:28:56.670Z,55.28
2022-08-13T00:29:57.404Z,54.78
2022-08-13T00:30:55.605Z,55.58
2022-08-13T00:31:55.586Z,56.26
2022-08-13T00:32:56.837Z,55.68
2022-08-13T00:33:55.569Z,56.09
2022-08-13T00:34:55.520Z,55.68
2022-08-13T00:35:55.502Z,56.19
2022-08-13T00:37:06.708Z,56.38
2022-08-13T00:37:56.468Z,56.11
2022-08-13T00:38:57.233Z,55.99
2022-08-13T00:40:18.238Z,56.51
2022-08-13T00:40:57.287Z,56.21
2022-08-13T00:41:58.736Z,56.11
2022-08-13T00:42:55.366Z,56.21
2022-08-13T00:43:55.374Z,56.41
2022-08-13T00:44:55.329Z,56.31
2022-08-13T00:45:55.313Z,56.92
2022-08-13T00:46:55.287Z,57.42
2022-08-13T00:47:55.265Z,57.02
2022-08-13T00:48:56.407Z,56.31
2022-08-13T00:50:01.056Z,57.02
2022-08-13T00:50:56.207Z,56.71
2022-08-13T00:51:58.058Z,56.41
2022-08-13T00:52:55.166Z,56.11
2022-08-13T00:53:55.772Z,56.19
2022-08-13T00:54:56.377Z,55.88
2022-08-13T00:55:55.105Z,56.38
2022-08-13T00:56:55.080Z,56.29
2022-08-13T00:57:55.060Z,56.38
2022-08-13T00:58:55.070Z,56.19
2022-08-13T00:59:55.023Z,56.09
2022-08-13T01:00:55.002Z,55.88
2022-08-13T01:01:55.005Z,56.69
2022-08-13T01:02:56.573Z,56.51
2022-08-13T01:04:10.042Z,56.38
2022-08-13T01:04:56.924Z,56.92
2022-08-13T01:05:54.934Z,56.11
2022-08-13T01:06:54.877Z,56.38
2022-08-13T01:07:58.699Z,56.41
2022-08-13T01:08:59.316Z,56.01
2022-08-13T01:10:16.208Z,56.51
2022-08-13T01:10:58.650Z,56.41
2022-08-13T01:11:54.780Z,56.41
2022-08-13T01:12:54.757Z,56.09
2022-08-13T01:13:54.825Z,56.38
2022-08-13T01:14:54.719Z,56.38
2022-08-13T01:15:56.031Z,56.19
2022-08-13T01:16:54.681Z,56.29
2022-08-13T01:17:57.493Z,56.82
2022-08-13T01:18:55.664Z,56.51
2022-08-13T01:19:58.875Z,56.41
2022-08-13T01:20:56.872Z,56.21
2022-08-13T01:21:54.580Z,56.62
2022-08-13T01:22:54.558Z,56.62
2022-08-13T01:24:03.029Z,56.31
2022-08-13T01:24:55.549Z,56.62
2022-08-13T01:26:01.197Z,56.71
2022-08-13T01:26:55.479Z,57.32
2022-08-13T01:27:54.463Z,56.21
2022-08-13T01:28:54.440Z,57.42
2022-08-13T01:29:54.448Z,57.52
2022-08-13T01:30:54.399Z,56.92
2022-08-13T01:31:54.377Z,57.15
2022-08-13T01:32:57.916Z,57.55
2022-08-13T01:33:54.341Z,57.32
2022-08-13T01:34:54.350Z,57.22
2022-08-13T01:35:54.298Z,57.42
2022-08-13T01:36:55.932Z,57.52
2022-08-13T01:37:54.259Z,57.22
2022-08-13T01:38:55.245Z,57.32
2022-08-13T01:39:54.275Z,57.35
2022-08-13T01:40:54.199Z,57.24
2022-08-13T01:41:55.613Z,57.04
2022-08-13T01:42:56.173Z,57.04
2022-08-13T01:43:54.137Z,57.55
2022-08-13T01:44:54.146Z,57.65
2022-08-13T01:45:54.092Z,57.75
2022-08-13T01:46:54.074Z,57.68
2022-08-13T01:47:58.395Z,57.85
2022-08-13T01:48:59.784Z,57.55
2022-08-13T01:49:55.044Z,58.15
2022-08-13T01:50:53.991Z,57.88
2022-08-13T01:51:53.973Z,57.95
2022-08-13T01:52:53.953Z,58.35
2022-08-13T01:53:53.930Z,58.05
2022-08-13T01:54:53.935Z,58.45
2022-08-13T01:56:15.158Z,58.25
2022-08-13T01:56:54.870Z,59.19
2022-08-13T01:57:53.851Z,57.98
2022-08-13T01:59:09.555Z,58.35
2022-08-13T02:00:01.730Z,58.78
2022-08-13T02:00:54.823Z,58.68
2022-08-13T02:01:53.766Z,58.18
2022-08-13T02:02:54.746Z,58.78
2022-08-13T02:03:53.727Z,58.38
2022-08-13T02:04:56.099Z,59.08
2022-08-13T02:06:20.977Z,59.19
2022-08-13T02:06:54.811Z,58.98
2022-08-13T02:08:01.170Z,58.86
2022-08-13T02:08:54.629Z,58.68
2022-08-13T02:10:00.163Z,58.88
2022-08-13T02:10:54.588Z,58.55
2022-08-13T02:11:53.569Z,59.08
2022-08-13T02:12:53.546Z,59.19
2022-08-13T02:13:53.528Z,58.58
2022-08-13T02:14:53.531Z,59.79
2022-08-13T02:15:53.484Z,58.98
2022-08-13T02:16:54.127Z,59.06
2022-08-13T02:18:02.267Z,58.88
2022-08-13T02:18:54.423Z,58.58
2022-08-13T02:19:53.441Z,58.88
2022-08-13T02:20:53.387Z,58.48
2022-08-13T02:21:53.360Z,58.88
2022-08-13T02:22:53.341Z,58.88
2022-08-13T02:24:01.495Z,58.55
2022-08-13T02:24:54.328Z,58.28
2022-08-13T02:25:58.273Z,58.78
2022-08-13T02:26:54.929Z,58.68
2022-08-13T02:27:57.876Z,58.86
2022-08-13T02:28:54.222Z,58.68
2022-08-13T02:29:53.223Z,58.28
2022-08-13T02:30:54.827Z,59.28
2022-08-13T02:32:05.475Z,59.08
2022-08-13T02:32:54.145Z,58.88
2022-08-13T02:33:53.120Z,59.08
2022-08-13T02:34:53.128Z,59.19
2022-08-13T02:35:53.083Z,59.01
2022-08-13T02:36:56.442Z,59.28
2022-08-13T02:37:57.360Z,59.28
2022-08-13T02:38:53.018Z,59.28
2022-08-13T02:39:53.087Z,59.48
2022-08-13T02:40:52.984Z,58.68
2022-08-13T02:41:52.958Z,58.91
2022-08-13T02:42:52.939Z,59.42
2022-08-13T02:43:54.660Z,59.82
2022-08-13T02:44:53.926Z,59.72
2022-08-13T02:45:52.875Z,59.82
2022-08-13T02:46:52.852Z,59.72
2022-08-13T02:47:52.835Z,59.62
2022-08-13T02:48:52.817Z,60.32
2022-08-13T02:49:52.821Z,59.42
2022-08-13T02:50:52.797Z,59.52
2022-08-13T02:52:05.976Z,60.22
2022-08-13T02:52:58.781Z,59.84
2022-08-13T02:53:55.000Z,60.25
2022-08-13T02:54:56.610Z,60.15
2022-08-13T02:55:53.695Z,59.72
2022-08-13T02:56:52.658Z,60.45
2022-08-13T02:57:52.625Z,60.25
2022-08-13T02:58:52.605Z,60.25
2022-08-13T03:00:05.729Z,60.85
2022-08-13T03:00:53.659Z,60.85
2022-08-13T03:01:54.540Z,60.25
2022-08-13T03:02:52.519Z,60.75
2022-08-13T03:03:52.505Z,60.15
2022-08-13T03:04:52.556Z,60.65
2022-08-13T03:05:59.699Z,60.85
2022-08-13T03:06:53.441Z,60.65
2022-08-13T03:07:53.975Z,60.25
2022-08-13T03:08:54.621Z,61.25
2022-08-13T03:09:52.411Z,60.17
2022-08-13T03:10:53.366Z,60.88
2022-08-13T03:11:52.343Z,60.68
2022-08-13T03:12:52.318Z,60.78
2022-08-13T03:13:52.300Z,60.78
2022-08-13T03:14:52.310Z,61.08
2022-08-13T03:15:55.449Z,61.49
2022-08-13T03:16:53.239Z,61.66
2022-08-13T03:17:53.933Z,60.78
2022-08-13T03:18:54.340Z,60.68
2022-08-13T03:19:58.434Z,61.79
2022-08-13T03:20:53.182Z,60.65
2022-08-13T03:21:52.137Z,61.69
2022-08-13T03:22:52.526Z,60.98
2022-08-13T03:23:52.092Z,61.59
2022-08-13T03:24:52.072Z,61.39
2022-08-13T03:25:52.075Z,61.59
2022-08-13T03:26:53.886Z,61.39
2022-08-13T03:27:54.249Z,61.29
2022-08-13T03:28:55.495Z,61.49
2022-08-13T03:30:03.448Z,61.59
2022-08-13T03:30:55.356Z,61.49
2022-08-13T03:31:55.009Z,61.69
2022-08-13T03:32:51.903Z,61.79
2022-08-13T03:34:00.520Z,61.59
2022-08-13T03:34:52.864Z,62.09
2022-08-13T03:35:51.870Z,62.22
2022-08-13T03:36:51.820Z,62.09
2022-08-13T03:37:51.801Z,61.99
2022-08-13T03:38:51.781Z,62.29
2022-08-13T03:39:51.818Z,62.19
2022-08-13T03:40:51.770Z,62.09
2022-08-13T03:41:52.369Z,61.82
2022-08-13T03:42:53.912Z,62.09
2022-08-13T03:43:53.527Z,61.89
2022-08-13T03:44:51.655Z,62.09
2022-08-13T03:45:51.663Z,62.09
2022-08-13T03:46:51.613Z,62.19
2022-08-13T03:47:51.589Z,62.09
2022-08-13T03:48:51.567Z,62.09
2022-08-13T03:49:52.194Z,62.09
2022-08-13T03:50:55.352Z,62.29
2022-08-13T03:51:51.499Z,62.09
2022-08-13T03:52:51.623Z,61.79
2022-08-13T03:53:51.458Z,61.49
2022-08-13T03:54:51.443Z,61.99
2022-08-13T03:55:52.447Z,61.99
2022-08-13T03:56:56.701Z,61.82
2022-08-13T03:58:03.068Z,62.63
2022-08-13T03:58:52.362Z,62.32
2022-08-13T03:59:51.336Z,62.63
2022-08-13T04:00:52.347Z,62.43
2022-08-13T04:01:57.059Z,62.83
2022-08-13T04:02:52.272Z,63.03
2022-08-13T04:03:51.252Z,62.93
2022-08-13T04:04:51.257Z,63.03
2022-08-13T04:05:56.621Z,63.03
2022-08-13T04:06:52.187Z,62.85
2022-08-13T04:07:51.162Z,62.83
2022-08-13T04:08:51.142Z,63.03
2022-08-13T04:09:55.071Z,62.83
2022-08-13T04:10:54.008Z,62.73
2022-08-13T04:12:01.840Z,62.73
2022-08-13T04:12:53.063Z,62.93
2022-08-13T04:14:05.083Z,62.43
2022-08-13T04:15:01.823Z,62.70
2022-08-13T04:15:52.009Z,62.49
2022-08-13T04:16:50.981Z,62.09
2022-08-13T04:17:50.959Z,61.89
2022-08-13T04:18:51.764Z,62.29
2022-08-13T04:19:50.947Z,61.66
2022-08-13T04:20:50.894Z,60.72
2022-08-13T04:21:50.874Z,60.63
2022-08-13T04:22:50.855Z,60.16
2022-08-13T04:23:50.836Z,59.13
2022-08-13T04:24:50.837Z,58.29
2022-08-13T04:25:50.792Z,56.86
2022-08-13T04:26:50.776Z,56.23
2022-08-13T04:27:51.824Z,56.34
2022-08-13T04:28:50.739Z,55.38
2022-08-13T04:29:50.768Z,54.62
2022-08-13T04:30:50.691Z,53.19
2022-08-13T04:31:51.594Z,52.47
2022-08-13T04:32:57.478Z,51.94
2022-08-13T04:34:14.493Z,51.59
2022-08-13T04:34:51.650Z,50.54
2022-08-13T04:35:53.524Z,50.12
2022-08-13T04:36:51.576Z,48.78
2022-08-13T04:37:54.679Z,47.86
2022-08-13T04:38:50.539Z,47.44
2022-08-13T04:40:05.941Z,47.02
2022-08-13T04:40:54.458Z,46.47
2022-08-13T04:41:51.481Z,45.26
2022-08-13T04:42:50.793Z,45.33
2022-08-13T04:44:00.621Z,44.92
2022-08-13T04:44:51.455Z,44.27
2022-08-13T04:45:50.412Z,43.58
2022-08-13T04:46:50.389Z,43.96
2022-08-13T04:47:50.397Z,43.14
2022-08-13T04:48:50.352Z,42.82
2022-08-13T04:49:50.360Z,43.10
2022-08-13T04:50:50.317Z,42.09
2022-08-13T04:51:50.299Z,41.77
2022-08-13T04:52:50.280Z,41.67
2022-08-13T04:53:51.097Z,40.26
2022-08-13T04:54:50.274Z,40.68
2022-08-13T04:56:07.947Z,40.26
2022-08-13T04:56:51.208Z,40.34
2022-08-13T04:57:56.138Z,39.83
2022-08-13T04:58:51.170Z,40.61
2022-08-13T04:59:50.286Z,39.50
2022-08-13T05:00:52.638Z,39.79
2022-08-13T05:01:59.524Z,37.92
2022-08-13T05:02:51.103Z,38.71
2022-08-13T05:03:55.307Z,38.59
2022-08-13T05:04:52.390Z,38.21
2022-08-13T05:05:50.176Z,38.51
2022-08-13T05:06:51.867Z,38.41
2022-08-13T05:07:51.982Z,38.79
2022-08-13T05:08:55.438Z,38.29
2022-08-13T05:09:54.024Z,38.02
2022-08-13T05:10:51.229Z,38.71
2022-08-13T05:12:02.756Z,38.59
2022-08-13T05:12:50.928Z,38.00
2022-08-13T05:13:56.218Z,38.18
2022-08-13T05:14:50.894Z,39.20
2022-08-13T05:15:49.900Z,38.63
2022-08-13T05:16:50.035Z,39.09
2022-08-13T05:17:49.835Z,39.44
2022-08-13T05:18:49.832Z,38.34
2022-08-13T05:19:50.589Z,37.63
2022-08-13T05:20:52.599Z,36.96
2022-08-13T05:21:58.477Z,38.01
2022-08-13T05:23:18.181Z,37.08
2022-08-13T05:26:10.160Z,35.20
2022-08-13T05:26:17.306Z,37.24
2022-08-13T05:26:21.667Z,36.08
2022-08-13T05:26:59.086Z,35.85
2022-08-13T05:27:50.665Z,34.44
2022-08-13T05:28:49.644Z,33.64
2022-08-13T05:30:03.724Z,33.92
2022-08-13T05:30:52.064Z,34.31
2022-08-13T05:31:56.405Z,34.42
2022-08-13T05:32:51.018Z,33.26
2022-08-13T05:34:03.844Z,34.15
2022-08-13T05:34:51.560Z,35.91
2022-08-13T05:38:09.278Z,33.85
2022-08-13T05:38:14.283Z,35.06
2022-08-13T05:38:14.521Z,34.64
2022-08-13T05:38:50.471Z,34.72
2022-08-13T05:39:50.058Z,34.25
2022-08-13T05:40:53.301Z,35.72
2022-08-13T05:42:06.644Z,34.13
2022-08-13T05:42:50.435Z,35.11
2022-08-13T05:43:51.542Z,35.29
2022-08-13T05:44:49.462Z,33.90
2022-08-13T05:45:53.707Z,33.31
2022-08-13T05:46:50.338Z,33.29
2022-08-13T05:47:49.347Z,33.72
2022-08-13T05:48:49.301Z,32.86
2022-08-13T05:49:58.376Z,33.62
2022-08-13T05:50:50.312Z,34.49
2022-08-13T05:52:36.529Z,33.67
2022-08-13T05:52:50.537Z,32.99
2022-08-13T05:56:04.493Z,32.79
2022-08-13T05:56:09.736Z,32.87
2022-08-13T05:56:13.671Z,33.77
2022-08-13T05:56:50.169Z,33.25
2022-08-13T05:57:51.294Z,33.72
2022-08-13T05:58:49.611Z,32.81
2022-08-13T05:59:50.075Z,32.62
2022-08-13T06:01:11.357Z,31.84
2022-08-13T06:01:51.196Z,31.84
2022-08-13T06:02:50.194Z,32.63
2022-08-13T06:04:17.577Z,32.03
2022-08-13T06:04:50.105Z,32.31
2022-08-13T06:05:49.048Z,30.54
2022-08-13T06:06:49.006Z,30.93
2022-08-13T06:07:48.991Z,29.54
2022-08-13T06:08:48.976Z,30.00
2022-08-13T06:09:48.959Z,30.68
2022-08-13T06:10:48.972Z,30.98
2022-08-13T06:12:25.890Z,29.83
2022-08-13T06:12:58.900Z,31.51
2022-08-13T06:14:05.276Z,32.51
2022-08-13T06:14:53.497Z,33.17
2022-08-13T06:16:04.866Z,32.75
2022-08-13T06:16:55.143Z,31.68
2022-08-13T06:17:49.841Z,32.76
2022-08-13T06:18:52.230Z,33.28
2022-08-13T06:19:50.726Z,33.20
2022-08-13T06:20:57.923Z,34.06
2022-08-13T06:22:00.033Z,32.78
2022-08-13T06:22:49.764Z,33.26
2022-08-13T06:23:48.777Z,32.29
2022-08-13T06:24:52.794Z,32.56
2022-08-13T06:25:59.482Z,33.04
2022-08-13T06:26:49.704Z,34.64
2022-08-13T06:27:55.265Z,34.34
2022-08-13T06:28:49.671Z,35.36
2022-08-13T06:29:51.339Z,34.23
2022-08-13T06:30:51.356Z,34.67
2022-08-13T06:31:48.628Z,33.18
2022-08-13T06:34:06.293Z,33.09
2022-08-13T06:34:08.745Z,33.59
2022-08-13T06:34:49.587Z,32.89
2022-08-13T06:35:52.495Z,32.58
2022-08-13T06:36:50.562Z,33.05
2022-08-13T06:37:50.035Z,32.17
2022-08-13T06:38:50.918Z,32.14
2022-08-13T06:40:01.071Z,33.46
2022-08-13T06:40:49.526Z,33.75
2022-08-13T06:42:02.813Z,34.11
2022-08-13T06:42:57.055Z,34.93
2022-08-13T06:44:01.154Z,35.06
2022-08-13T06:44:49.441Z,36.11
2022-08-13T06:45:48.451Z,34.61
2022-08-13T06:46:48.409Z,36.08
2022-08-13T06:47:48.400Z,38.48
2022-08-13T06:48:50.504Z,36.05
2022-08-13T06:49:59.013Z,35.46
2022-08-13T06:50:49.377Z,35.77
2022-08-13T06:51:48.335Z,35.74
2022-08-13T06:54:10.567Z,35.91
2022-08-13T06:54:25.157Z,35.02
2022-08-13T06:54:51.319Z,34.20
2022-08-13T06:56:21.137Z,33.97
2022-08-13T06:56:59.415Z,32.87
2022-08-13T06:58:15.323Z,32.75
2022-08-13T06:58:52.165Z,31.72
2022-08-13T07:00:11.078Z,32.78
2022-08-13T07:00:49.274Z,34.33
2022-08-13T07:02:05.079Z,34.47
2022-08-13T07:02:49.177Z,33.50
2022-08-13T07:03:58.613Z,34.05
2022-08-13T07:04:49.143Z,33.23
2022-08-13T07:05:58.504Z,33.51
2022-08-13T07:06:49.118Z,31.74
2022-08-13T07:07:48.101Z,31.72
2022-08-13T07:08:48.087Z,31.13
2022-08-13T07:09:48.068Z,33.14
2022-08-13T07:10:48.081Z,32.81
2022-08-13T07:11:48.035Z,32.70
2022-08-13T07:12:48.026Z,32.97
2022-08-13T07:13:48.005Z,34.06
2022-08-13T07:14:58.770Z,34.08
2022-08-13T07:15:49.004Z,33.77
2022-08-13T07:16:47.965Z,33.97
2022-08-13T07:17:47.946Z,34.33
2022-08-13T07:18:48.928Z,33.40
2022-08-13T07:20:05.824Z,31.99
2022-08-13T07:20:48.928Z,31.10
2022-08-13T07:21:47.890Z,31.48
2022-08-13T07:24:36.769Z,32.09
2022-08-13T07:24:49.308Z,31.51
2022-08-13T07:24:51.342Z,32.58
2022-08-13T07:25:58.133Z,32.29
2022-08-13T07:26:48.815Z,32.01
2022-08-13T07:27:48.025Z,33.30
2022-08-13T07:28:51.894Z,33.02
2022-08-13T07:29:52.972Z,32.91
2022-08-13T07:30:47.788Z,31.62
2022-08-13T07:32:04.194Z,32.89
2022-08-13T07:32:48.726Z,31.49
2022-08-13T07:33:54.704Z,31.57
2022-08-13T07:34:48.697Z,31.80
2022-08-13T07:35:52.647Z,31.77
2022-08-13T07:36:58.457Z,30.67
2022-08-13T07:37:51.887Z,31.70
2022-08-13T07:38:47.634Z,32.21
2022-08-13T07:39:50.610Z,34.53
2022-08-13T07:40:47.636Z,32.06
2022-08-13T07:42:03.168Z,31.77
2022-08-13T07:42:48.578Z,31.77
2022-08-13T07:44:03.464Z,31.57
2022-08-13T07:46:22.475Z,32.28
2022-08-13T07:46:27.315Z,34.16
2022-08-13T07:46:50.802Z,31.70
2022-08-13T07:48:26.727Z,32.94
2022-08-13T07:48:49.396Z,35.21
2022-08-13T07:49:47.623Z,36.76
2022-08-13T07:51:04.049Z,35.89
2022-08-13T07:51:51.339Z,37.15
2022-08-13T07:52:49.936Z,37.54
2022-08-13T07:53:55.681Z,38.01
2022-08-13T07:54:49.988Z,36.39
2022-08-13T07:56:07.397Z,34.39
2022-08-13T07:56:50.065Z,36.70
2022-08-13T07:57:47.355Z,36.22
2022-08-13T07:58:47.337Z,36.32
2022-08-13T08:00:03.719Z,36.74
2022-08-13T08:00:48.326Z,37.15
2022-08-13T08:02:23.293Z,38.09
2022-08-13T08:02:48.357Z,37.85
2022-08-13T08:03:52.028Z,39.47
2022-08-13T08:04:50.818Z,37.84
2022-08-13T08:05:51.782Z,36.62
2022-08-13T08:06:47.255Z,36.99
2022-08-13T08:08:05.027Z,37.52
2022-08-13T08:08:48.195Z,37.52
2022-08-13T08:09:47.184Z,37.50
2022-08-13T08:10:47.166Z,37.85
2022-08-13T08:11:50.864Z,38.32
2022-08-13T08:12:52.748Z,36.32
2022-08-13T08:13:48.131Z,35.89
2022-08-13T08:14:54.891Z,34.47
2022-08-13T08:16:02.027Z,36.09
2022-08-13T08:16:48.112Z,37.85
2022-08-13T08:18:33.730Z,38.54
2022-08-13T08:19:27.049Z,36.42
2022-08-13T08:20:17.708Z,35.74
2022-08-13T08:20:58.962Z,38.54
2022-08-13T08:22:25.162Z,38.03
2022-08-13T08:22:49.534Z,37.48
2022-08-13T08:23:49.209Z,37.42
2022-08-13T08:24:48.715Z,38.76
2022-08-13T08:25:49.750Z,38.24
2022-08-13T08:26:48.400Z,37.93
2022-08-13T08:28:06.447Z,38.09
2022-08-13T08:28:51.248Z,36.93
2022-08-13T08:29:56.428Z,37.21
2022-08-13T08:30:51.307Z,35.60
2022-08-13T08:31:59.457Z,36.51
2022-08-13T08:32:48.265Z,36.13
2022-08-13T08:33:51.153Z,37.03
2022-08-13T08:34:47.802Z,36.13
2022-08-13T08:35:57.913Z,36.09
2022-08-13T08:36:47.807Z,37.38
2022-08-13T08:37:59.068Z,37.03
2022-08-13T08:38:59.285Z,37.32
2022-08-13T08:39:48.782Z,37.62
2022-08-13T08:40:56.291Z,38.07
2022-08-13T08:41:50.007Z,36.29
2022-08-13T08:43:10.974Z,36.21
2022-08-13T08:43:48.664Z,35.83
2022-08-13T08:44:46.646Z,36.46
2022-08-13T08:46:07.852Z,37.87
2022-08-13T08:46:49.142Z,37.48
2022-08-13T08:47:57.559Z,37.87
2022-08-13T08:48:48.382Z,37.95
2022-08-13T08:49:47.564Z,37.30
2022-08-13T08:50:47.545Z,36.44
2022-08-13T08:51:46.556Z,37.15
2022-08-13T08:52:46.514Z,36.85
2022-08-13T08:54:05.969Z,37.97
2022-08-13T08:54:48.047Z,38.09
2022-08-13T08:55:52.231Z,38.78
2022-08-13T08:56:57.803Z,39.13
2022-08-13T08:57:47.467Z,37.87
2022-08-13T08:58:47.417Z,38.48
2022-08-13T08:59:52.256Z,37.20
2022-08-13T09:00:47.385Z,38.99
2022-08-13T09:01:58.909Z,39.28
2022-08-13T09:02:47.353Z,39.70
2022-08-13T09:03:58.294Z,39.76
2022-08-13T09:04:53.366Z,38.76
2022-08-13T09:05:47.301Z,38.54
2022-08-13T09:06:56.509Z,39.86
2022-08-13T09:07:47.272Z,38.97
2022-08-13T09:08:46.253Z,38.05
2022-08-13T09:09:48.564Z,36.49
2022-08-13T09:10:46.216Z,38.46
2022-08-13T09:11:53.565Z,38.18
2022-08-13T09:12:47.184Z,37.87
2022-08-13T09:13:46.170Z,37.26
2022-08-13T09:14:47.170Z,38.17
2022-08-13T09:15:46.683Z,38.20
2022-08-13T09:16:46.428Z,38.43
2022-08-13T09:17:46.295Z,39.01
2022-08-13T09:18:46.079Z,38.70
2022-08-13T09:19:48.844Z,39.37
2022-08-13T09:20:46.369Z,37.99
2022-08-13T09:21:47.086Z,38.09
2022-08-13T09:22:54.403Z,38.99
2022-08-13T09:24:18.117Z,39.68
2022-08-13T09:24:48.381Z,38.87
2022-08-13T09:25:50.024Z,39.62
2022-08-13T09:26:58.672Z,40.31
2022-08-13T09:28:02.226Z,39.81
2022-08-13T09:28:46.674Z,39.40
2022-08-13T09:29:45.893Z,39.72
2022-08-13T09:30:49.015Z,41.00
2022-08-13T09:31:53.846Z,40.47
2022-08-13T09:32:46.844Z,38.46
2022-08-13T09:33:59.550Z,38.68
2022-08-13T09:34:47.817Z,39.18
2022-08-13T09:35:45.795Z,38.87
2022-08-13T09:36:45.825Z,39.39
2022-08-13T09:37:54.928Z,38.78
2022-08-13T09:38:46.823Z,38.99
2022-08-13T09:39:45.785Z,39.89
2022-08-13T09:40:56.406Z,40.01
2022-08-13T09:41:46.724Z,41.22
2022-08-13T09:42:45.678Z,41.85
2022-08-13T09:43:48.073Z,41.89
2022-08-13T09:44:47.580Z,42.70
2022-08-13T09:45:46.617Z,42.80
2022-08-13T09:46:49.032Z,43.31
2022-08-13T09:48:33.705Z,42.92
2022-08-13T09:48:47.634Z,42.60
2022-08-13T09:50:04.055Z,42.48
2022-08-13T09:50:56.748Z,43.27
2022-08-13T09:52:02.293Z,42.66
2022-08-13T09:52:46.519Z,40.74
2022-08-13T09:53:45.500Z,41.38
2022-08-13T09:54:47.230Z,42.90
2022-08-13T09:55:53.436Z,43.33
2022-08-13T09:56:47.085Z,43.75
2022-08-13T09:57:45.614Z,45.16
2022-08-13T09:58:45.413Z,44.37
2022-08-13T09:59:51.878Z,44.17
2022-08-13T10:00:46.661Z,43.75
2022-08-13T10:01:55.965Z,43.75
2022-08-13T10:02:47.483Z,43.63
2022-08-13T10:03:46.603Z,42.99
2022-08-13T10:04:46.953Z,42.68
2022-08-13T10:05:50.270Z,41.97
2022-08-13T10:06:59.114Z,43.23
2022-08-13T10:07:48.920Z,42.52
2022-08-13T10:08:46.388Z,41.63
2022-08-13T10:09:55.600Z,41.02
2022-08-13T10:10:46.211Z,41.95
2022-08-13T10:12:18.200Z,41.83
2022-08-13T10:12:46.940Z,41.51
2022-08-13T10:13:50.910Z,41.24
2022-08-13T10:14:49.603Z,41.33
2022-08-13T10:15:46.115Z,41.33
2022-08-13T10:16:45.681Z,41.63
2022-08-13T10:17:48.289Z,41.63
2022-08-13T10:18:46.311Z,41.85
2022-08-13T10:19:50.260Z,41.77
2022-08-13T10:20:46.107Z,42.96
2022-08-13T10:21:45.040Z,41.38
2022-08-13T10:22:45.993Z,41.39
2022-08-13T10:23:44.978Z,42.50
2022-08-13T10:24:45.957Z,41.73
2022-08-13T10:25:47.453Z,42.01
2022-08-13T10:26:45.952Z,42.68
2022-08-13T10:27:49.487Z,41.79
2022-08-13T10:28:48.056Z,41.93
2022-08-13T10:30:05.837Z,43.29
2022-08-13T10:30:59.567Z,42.80
2022-08-13T10:31:48.820Z,42.90
2022-08-13T10:32:48.850Z,43.69
2022-08-13T10:33:47.071Z,42.96
2022-08-13T10:34:56.913Z,42.85
2022-08-13T10:35:45.768Z,42.02
2022-08-13T10:36:44.779Z,42.42
2022-08-13T10:37:58.064Z,41.83
2022-08-13T10:38:53.880Z,40.37
2022-08-13T10:39:53.746Z,39.46
2022-08-13T10:40:46.272Z,40.76
2022-08-13T10:42:02.719Z,40.55
2022-08-13T10:42:45.647Z,38.87
2022-08-13T10:43:56.209Z,39.56
2022-08-13T10:44:45.614Z,37.80
2022-08-13T10:45:44.593Z,37.30
2022-08-13T10:46:44.592Z,38.51
2022-08-13T10:47:56.302Z,39.52
2022-08-13T10:48:45.875Z,40.64
2022-08-13T10:49:44.527Z,41.55
2022-08-13T10:50:44.707Z,41.95
2022-08-13T10:52:03.993Z,41.44
2022-08-13T10:52:46.431Z,41.61
2022-08-13T10:53:45.429Z,41.59
2022-08-13T10:54:44.433Z,41.39
2022-08-13T10:55:45.415Z,40.19
2022-08-13T10:56:44.481Z,40.29
2022-08-13T10:58:00.429Z,39.20
2022-08-13T10:58:51.853Z,39.72
2022-08-13T10:59:46.470Z,38.92
2022-08-13T11:00:49.156Z,37.34
2022-08-13T11:01:45.334Z,38.63
2022-08-13T11:02:44.582Z,38.63
2022-08-13T11:03:48.151Z,39.62
2022-08-13T11:04:51.465Z,39.78
2022-08-13T11:05:45.276Z,38.96
2022-08-13T11:06:44.280Z,39.23
2022-08-13T11:07:44.225Z,37.85
2022-08-13T11:08:44.596Z,38.47
2022-08-13T11:09:44.165Z,37.01
2022-08-13T11:11:30.506Z,38.81
2022-08-13T11:11:53.038Z,37.72
2022-08-13T11:12:45.166Z,38.71
2022-08-13T11:13:52.075Z,38.71
2022-08-13T11:14:45.068Z,39.22
2022-08-13T11:15:46.959Z,39.89
2022-08-13T11:16:44.072Z,38.81
2022-08-13T11:17:53.179Z,40.41
2022-08-13T11:18:45.002Z,40.13
2022-08-13T11:19:49.145Z,40.23
2022-08-13T11:20:48.587Z,40.48
2022-08-13T11:22:20.085Z,40.88
2022-08-13T11:22:44.987Z,37.60
2022-08-13T11:23:52.282Z,37.49
2022-08-13T11:24:44.896Z,38.18
2022-08-13T11:25:56.146Z,38.57
2022-08-13T11:26:46.327Z,39.84
2022-08-13T11:27:51.480Z,39.15
2022-08-13T11:28:43.825Z,40.43
2022-08-13T11:29:45.278Z,39.12
2022-08-13T11:30:44.788Z,39.52
2022-08-13T11:31:59.601Z,37.35
2022-08-13T11:32:44.756Z,38.04
2022-08-13T11:34:07.128Z,36.57
2022-08-13T11:34:44.719Z,36.96
2022-08-13T11:35:48.402Z,37.35
2022-08-13T11:36:43.715Z,38.04
2022-08-13T11:37:44.669Z,38.79
2022-08-13T11:38:43.699Z,37.43
2022-08-13T11:40:22.050Z,38.54
2022-08-13T11:40:44.649Z,38.06
2022-08-13T11:41:56.673Z,37.85
2022-08-13T11:42:44.620Z,36.96
2022-08-13T11:43:51.667Z,37.49
2022-08-13T11:44:49.076Z,37.60
2022-08-13T11:45:44.733Z,37.29
2022-08-13T11:46:43.510Z,39.26
2022-08-13T11:47:46.166Z,39.17
2022-08-13T11:48:53.499Z,38.87
2022-08-13T11:49:44.453Z,39.36
2022-08-13T11:50:43.435Z,39.06
2022-08-13T11:51:50.876Z,40.72
2022-08-13T11:52:44.660Z,39.04
2022-08-13T11:53:55.417Z,39.03
2022-08-13T11:54:44.372Z,40.41
2022-08-13T11:55:57.119Z,38.51
2022-08-13T11:56:51.164Z,39.42
2022-08-13T11:57:47.371Z,39.87
2022-08-13T11:58:54.865Z,41.20
2022-08-13T11:59:45.277Z,41.10
2022-08-13T12:00:44.255Z,41.91
2022-08-13T12:01:43.237Z,42.01
2022-08-13T12:02:43.286Z,42.60
2022-08-13T12:04:13.238Z,41.49
2022-08-13T12:04:49.232Z,40.21
2022-08-13T12:05:44.166Z,40.19
2022-08-13T12:06:47.658Z,41.30
2022-08-13T12:07:48.081Z,41.00
2022-08-13T12:09:22.317Z,40.11
2022-08-13T12:09:48.281Z,40.39
2022-08-13T12:10:50.558Z,40.39
2022-08-13T12:12:08.409Z,40.17
2022-08-13T12:12:44.233Z,39.17
2022-08-13T12:13:44.032Z,39.36
2022-08-13T12:14:44.011Z,38.75
2022-08-13T12:16:11.855Z,39.04
2022-08-13T12:16:44.394Z,38.42
2022-08-13T12:17:51.969Z,38.62
2022-08-13T12:18:59.891Z,39.23
2022-08-13T12:19:45.238Z,38.40
2022-08-13T12:20:44.214Z,38.93
2022-08-13T12:21:43.195Z,38.75
2022-08-13T12:22:43.369Z,38.67
2022-08-13T12:23:44.261Z,38.28
2022-08-13T12:24:56.951Z,38.87
2022-08-13T12:26:04.058Z,39.06
2022-08-13T12:26:44.165Z,39.18
2022-08-13T12:27:46.511Z,41.83
2022-08-13T12:28:44.087Z,39.12
2022-08-13T12:29:46.917Z,37.74
2022-08-13T12:30:43.142Z,39.52
2022-08-13T12:31:43.997Z,38.81
2022-08-13T12:32:43.206Z,37.71
2022-08-13T12:33:42.920Z,36.74
2022-08-13T12:34:48.473Z,36.94
2022-08-13T12:35:56.443Z,37.22
2022-08-13T12:36:44.801Z,37.15
2022-08-13T12:37:44.844Z,36.86
2022-08-13T12:38:42.871Z,37.85
2022-08-13T12:39:52.321Z,36.46
2022-08-13T12:40:43.770Z,37.05
2022-08-13T12:41:48.008Z,36.45
2022-08-13T12:42:44.215Z,36.94
2022-08-13T12:44:08.783Z,37.45
2022-08-13T12:45:06.549Z,36.84
2022-08-13T12:45:56.247Z,38.32
2022-08-13T12:46:46.015Z,37.65
2022-08-13T12:47:49.516Z,37.87
2022-08-13T12:48:44.159Z,37.27
2022-08-13T12:50:00.353Z,38.24
2022-08-13T12:50:43.770Z,37.45
2022-08-13T12:51:55.255Z,37.37
2022-08-13T12:52:44.652Z,38.87